Kearsarge, New Hampshire
Current Conditions -  °F | °C
As of 6:54 AM on Friday 21 Nov 2014 (Local Time) from KIZG Reporting Station
Clear Clear  
Wind Chill: 13°   Ceiling: Unl
Heat Index: 22°   Visibility: 10mi
Dew Point: 11°   Wind: 7mph
Humidity: 63%   Direction: 270°W
Pressure: 29.92"   Gusts: NA
Location:  44.08°N, 71.12°W
Report Text: KIZG 211154Z AUTO 27006KT 10SM CLR M06/M12 A2992 RMK AO2 SLP140 T10561117 11039 21061 53025
Loading
Personal Weather Stations






























Interactive Weather Map New forecast layout! Learn more

10-Day Weather Forecast

Advertisements
Track Severe Weather on mobile